Latest Weather Observations for Cessnock Airport

IDN60801

Issued at 1:23 pm EDT Tuesday 10 December 2019 (issued every 10 minutes, with the page automatically refreshed every 10 minutes)

About weather observations | Map of weather stations | Latest weather observations for NSW | Other Formats
Station Details ID: 061260 Name: CESSNOCK AIRPORT AWS Lat: -32.79 Lon: 151.34 Height: 61.0 m
Data from the previous 72 hours. | See also: Recent months at Cessnock Airport
Date/Time
EDT
Temp
°C
App
Temp
°C
Dew
Point
°C
Rel
Hum
%
Delta-T
°C
Wind Press
QNH
hPa
Press
MSL
hPa
Rain since
9am
mm
Dir  Spd
km/h
Gust
km/h
Spd
kts
Gust
kts
10/01:00pm 39.9 35.9 5.1 12 19.2 N 15 26 8 14 1009.4 1009.1 0.0
10/12:30pm 39.6 36.7 8.1 15 18.1 NW 13 26 7 14 1009.9 1009.6 0.0
10/12:00pm 38.2 33.6 8.0 16 17.2 NNW 22 33 12 18 1010.6 1010.3 0.0
10/11:30am 37.1 34.1 12.5 23 14.9 NW 20 33 11 18 1011.0 1010.7 0.0
10/11:00am 35.9 32.4 13.4 26 13.8 NW 24 41 13 22 1011.4 1011.1 0.0
10/10:30am 34.2 31.2 14.7 31 12.1 NW 24 39 13 21 1011.7 1011.4 0.0
10/10:00am 31.9 28.8 14.5 34 10.7 NNW 24 37 13 20 1011.8 1011.5 0.0
10/09:30am 30.3 29.3 16.7 44 8.6 NNW 17 28 9 15 1012.5 1012.2 0.0
10/09:00am 28.0 28.4 18.1 55 6.3 NNW 13 19 7 10 1012.9 1012.7 0.0
10/08:30am 25.7 26.6 18.4 64 4.6 N 11 15 6 8 1013.3 1013.1 0.0
10/08:00am 22.4 24.7 17.8 75 2.9 ESE 2 6 1 3 1013.6 1013.4 0.0
10/07:30am 20.4 21.3 17.6 84 1.7 NE 9 9 5 5 1013.4 1013.2 0.0
10/07:00am 18.4 19.3 16.7 90 1.0 N 7 9 4 5 1013.5 1013.3 0.0
10/06:30am 16.7 18.5 15.4 92 0.8 CALM 0 0 0 0 1013.5 1013.3 0.0
10/06:00am 16.1 17.5 14.5 90 0.9 CALM 0 0 0 0 1013.2 1013.0 0.0
10/05:30am 16.3 17.7 14.5 89 1.0 CALM 0 0 0 0 1013.2 1013.0 0.0
10/05:00am 16.6 18.1 14.6 88 1.2 CALM 0 0 0 0 1013.2 1013.0 0.0
10/04:30am 17.4 19.2 15.6 89 1.1 CALM 0 0 0 0 1013.1 1012.9 0.0
10/04:00am 17.4 18.2 14.9 85 1.5 WSW 4 6 2 3 1013.2 1013.0 0.0
10/03:30am 17.8 18.4 15.2 85 1.5 WSW 6 7 3 4 1013.1 1012.9 0.0
10/03:00am 18.6 20.6 16.0 85 1.5 CALM 0 0 0 0 1013.3 1013.1 0.0
10/02:30am 19.3 21.5 16.5 84 1.7 CALM 0 0 0 0 1013.5 1013.3 0.0
10/02:00am 19.5 21.6 16.2 81 2.0 CALM 0 0 0 0 1013.8 1013.6 0.0
10/01:30am 20.7 21.4 17.1 80 2.2 SSW 9 11 5 6 1014.1 1013.9 0.0
10/01:00am 21.0 21.7 17.0 78 2.4 SSW 9 11 5 6 1014.2 1014.0 0.0
10/12:30am 21.1 21.4 16.9 77 2.6 S 11 13 6 7 1014.4 1014.2 0.0
10/12:00am 21.7 22.1 17.3 76 2.7 SSW 11 13 6 7 1014.7 1014.5 0.0
 
Date/Time
EDT
Temp
°C
App
Temp
°C
Dew
Point
°C
Rel
Hum
%
Delta-T
°C
Wind Press
QNH
hPa
Press
MSL
hPa
Rain since
9am
mm
Dir  Spd
km/h
Gust
km/h
Spd
kts
Gust
kts
09/11:30pm 21.7 22.0 17.1 75 2.8 SSW 11 15 6 8 1014.8 1014.6 0.0
09/11:00pm 22.0 22.4 17.2 74 3.0 S 11 13 6 7 1015.0 1014.8 0.0
09/10:30pm 22.3 22.6 17.0 72 3.3 S 11 15 6 8 1015.1 1014.9 0.0
09/10:00pm 22.7 22.6 16.9 70 3.6 S 13 17 7 9 1015.1 1014.9 0.0
09/09:30pm 23.8 23.8 17.1 66 4.1 SSE 13 19 7 10 1014.9 1014.7 0.0
09/09:00pm 24.3 24.3 17.1 64 4.5 SE 13 19 7 10 1014.8 1014.6 0.0
09/08:30pm 25.0 24.5 17.0 61 5.0 ESE 15 20 8 11 1014.7 1014.5 0.0
09/08:00pm 25.5 26.3 17.4 61 5.1 SE 9 13 5 7 1014.6 1014.4 0.0
09/07:30pm 26.2 26.0 17.6 59 5.4 SE 15 20 8 11 1014.5 1014.3 0.0
09/07:00pm 26.9 26.6 17.4 56 6.0 ESE 15 20 8 11 1014.3 1014.1 0.0
09/06:30pm 28.3 27.7 17.5 52 6.8 ESE 17 20 9 11 1014.0 1013.8 0.0
09/06:00pm 29.0 27.4 17.5 49 7.3 ESE 22 28 12 15 1013.8 1013.6 0.0
09/05:30pm 29.7 27.7 17.5 48 7.8 SE 24 33 13 18 1013.8 1013.6 0.0
09/05:00pm 30.8 28.3 17.1 43 8.7 ESE 26 33 14 18 1013.8 1013.6 0.0
09/04:30pm 31.7 29.3 16.4 39 9.6 ESE 24 33 13 18 1013.6 1013.4 0.0
09/04:00pm 33.1 31.3 16.0 35 10.8 E 20 30 11 16 1013.8 1013.6 0.0
09/03:30pm 33.9 32.9 13.4 29 12.4 NE 11 17 6 9 1014.3 1014.1 0.0
09/03:00pm 32.7 32.2 13.8 31 11.5 ENE 9 19 5 10 1014.9 1014.7 0.0
09/02:30pm 32.0 30.7 13.7 33 11.1 NNE 13 22 7 12 1015.5 1015.3 0.0
09/02:00pm 31.3 31.0 14.4 35 10.3 N 9 19 5 10 1016.2 1016.0 0.0
09/01:30pm 30.7 30.4 14.3 36 10.0 ESE 9 15 5 8 1016.8 1016.6 0.0
09/01:00pm 29.8 30.2 14.7 39 9.2 NE 6 13 3 7 1017.6 1017.4 0.0
09/12:30pm 28.9 28.6 15.4 44 8.3 ENE 11 17 6 9 1018.1 1017.9 0.0
09/12:00pm 28.2 29.4 15.8 47 7.6 WSW 4 9 2 5 1018.5 1018.3 0.0
09/11:30am 27.1 26.9 15.8 50 6.9 N 11 20 6 11 1019.0 1018.8 0.0
09/11:00am 26.5 26.3 15.8 51 6.5 ENE 11 19 6 10 1019.5 1019.3 0.0
09/10:30am 24.9 25.2 16.1 58 5.4 N 9 13 5 7 1019.8 1019.6 0.0
09/10:00am 24.2 23.7 15.9 59 5.0 NE 13 19 7 10 1020.2 1020.0 0.0
09/09:30am 23.5 23.4 16.1 63 4.5 ENE 11 19 6 10 1020.5 1020.3 0.0
09/09:00am 22.8 22.9 16.4 67 3.9 E 11 19 6 10 1020.7 1020.5 0.0
09/08:30am 21.9 21.9 16.2 70 3.5 E 11 17 6 9 1021.0 1020.8 0.0
09/08:00am 20.9 21.3 16.3 75 2.8 SE 9 11 5 6 1021.2 1021.0 0.0
09/07:30am 20.0 21.0 16.4 80 2.2 S 6 7 3 4 1020.8 1020.6 0.0
09/07:00am 19.0 20.0 16.4 85 1.6 S 6 7 3 4 1020.4 1020.2 0.0
09/06:30am 18.1 18.4 16.1 88 1.2 SSW 9 13 5 7 1020.2 1020.0 0.0
09/06:00am 17.6 17.4 15.8 89 1.1 SSW 11 13 6 7 1020.0 1019.8 0.0
09/05:30am 17.2 17.1 15.0 87 1.3 SW 9 11 5 6 1019.8 1019.6 0.0
09/05:00am 17.7 17.8 15.5 87 1.3 SSW 9 11 5 6 1019.5 1019.3 0.0
09/04:30am 17.6 17.6 15.2 86 1.4 SSW 9 11 5 6 1019.3 1019.1 0.0
09/04:00am 17.9 17.9 15.2 84 1.6 S 9 11 5 6 1019.3 1019.1 0.0
09/03:30am 18.2 17.8 15.3 83 1.7 S 11 15 6 8 1019.4 1019.2 0.0
09/03:00am 18.0 17.6 15.1 83 1.7 S 11 15 6 8 1019.6 1019.4 0.0
09/02:30am 18.1 18.1 15.2 83 1.7 SSW 9 13 5 7 1019.6 1019.4 0.0
09/02:00am 18.3 18.2 15.0 81 1.9 SSW 9 13 5 7 1019.7 1019.5 0.0
09/01:30am 19.0 18.6 15.3 79 2.2 S 11 17 6 9 1019.9 1019.7 0.0
09/01:00am 19.0 18.3 15.3 79 2.2 SSE 13 15 7 8 1020.0 1019.8 0.0
09/12:30am 19.1 18.3 15.2 78 2.3 SSE 13 15 7 8 1020.1 1019.9 0.0
09/12:00am 19.5 19.0 15.0 75 2.6 SSE 11 17 6 9 1020.3 1020.1 0.0
 
Date/Time
EDT
Temp
°C
App
Temp
°C
Dew
Point
°C
Rel
Hum
%
Delta-T
°C
Wind Press
QNH
hPa
Press
MSL
hPa
Rain since
9am
mm
Dir  Spd
km/h
Gust
km/h
Spd
kts
Gust
kts
08/11:30pm 19.5 18.7 15.0 75 2.6 SSE 13 15 7 8 1020.4 1020.2 0.0
08/11:00pm 19.9 19.4 14.9 73 2.9 SSE 11 15 6 8 1020.4 1020.2 0.0
08/10:30pm 20.1 19.2 14.9 72 3.1 SSE 13 15 7 8 1020.3 1020.1 0.0
08/10:00pm 20.5 19.7 15.1 71 3.2 SSE 13 19 7 10 1020.2 1020.0 0.0
08/09:30pm 20.8 19.6 15.1 70 3.4 SSE 15 19 8 10 1019.9 1019.7 0.0
08/09:00pm 21.1 19.9 15.0 68 3.6 SSE 15 20 8 11 1019.6 1019.4 0.0
08/08:30pm 21.6 19.9 14.7 65 4.1 SSE 17 24 9 13 1019.3 1019.1 0.0
08/08:00pm 22.2 20.1 14.8 63 4.4 SE 19 26 10 14 1019.1 1018.9 0.0
08/07:30pm 22.7 20.5 14.5 60 4.8 ESE 19 30 10 16 1018.5 1018.3 0.0
08/07:00pm 23.2 20.1 14.5 58 5.1 ESE 24 37 13 20 1017.9 1017.7 0.0
08/06:30pm 24.0 22.1 15.2 58 5.3 SE 19 26 10 14 1017.4 1017.2 0.0
08/06:00pm 24.7 22.3 15.3 56 5.7 SE 22 32 12 17 1017.1 1016.9 0.0
08/05:30pm 25.3 22.0 15.0 53 6.2 ESE 26 39 14 21 1016.8 1016.6 0.0
08/05:00pm 26.0 22.6 14.8 50 6.7 ESE 26 39 14 21 1016.4 1016.2 0.0
08/04:30pm 26.5 22.8 14.9 49 7.0 SE 28 35 15 19 1016.3 1016.1 0.0
08/04:00pm 27.3 24.1 15.3 48 7.3 ESE 26 39 14 21 1016.2 1016.0 0.0
08/03:30pm 28.0 25.2 15.3 46 7.8 ESE 24 35 13 19 1016.1 1015.9 0.0
08/03:00pm 28.0 25.1 15.0 45 7.9 E 24 33 13 18 1016.0 1015.8 0.0
08/02:30pm 28.8 26.1 14.6 42 8.6 ESE 22 35 12 19 1016.1 1015.9 0.0
08/02:00pm 29.2 27.5 14.6 41 8.9 SE 17 32 9 17 1016.2 1016.0 0.0
08/01:30pm 28.6 26.7 15.2 44 8.2 ESE 19 30 10 16 1016.5 1016.3 0.0
08/01:00pm 28.7 27.3 13.4 39 9.1 ENE 13 22 7 12 1016.8 1016.6 0.0
08/12:30pm 27.5 25.7 13.4 41 8.3 E 15 26 8 14 1016.9 1016.7 0.0
08/12:00pm 27.3 24.7 12.1 39 8.8 ENE 17 26 9 14 1017.1 1016.9 0.0
08/11:30am 26.8 24.2 13.2 43 8.0 ESE 19 28 10 15 1017.3 1017.1 0.0
08/11:00am 26.7 24.4 13.1 43 8.0 E 17 26 9 14 1017.4 1017.2 0.0
08/10:30am 25.6 23.0 13.1 46 7.3 E 19 30 10 16 1017.6 1017.4 0.0
08/10:00am 25.2 23.2 14.0 49 6.6 E 17 24 9 13 1017.8 1017.6 0.0
08/09:30am 24.9 22.7 14.4 52 6.2 E 19 30 10 16 1018.0 1017.8 0.0
08/09:00am 23.5 21.6 14.2 56 5.5 E 17 26 9 14 1017.9 1017.7 0.0
08/08:30am 23.5 21.7 15.5 60 4.8 E 19 24 10 13 1017.8 1017.6 0.0
08/08:00am 22.4 21.8 16.7 70 3.5 E 15 22 8 12 1017.8 1017.6 0.0
08/07:30am 21.0 21.7 17.0 78 2.4 SE 9 13 5 7 1017.7 1017.5 0.0
08/07:00am 19.0 20.3 17.5 91 0.9 S 7 9 4 5 1017.3 1017.1 0.0
08/06:30am 16.8 17.9 15.7 93 0.6 SSE 4 7 2 4 1017.0 1016.8 0.0
08/06:00am 16.8 17.1 16.0 95 0.5 S 9 11 5 6 1016.8 1016.6 0.0
08/05:30am 16.6 17.2 15.8 95 0.5 S 7 9 4 5 1016.5 1016.3 0.0
08/05:00am 16.1 17.8 15.1 94 0.6 CALM 0 0 0 0 1016.1 1015.9 0.0
08/04:30am 16.4 16.8 15.4 94 0.6 S 7 9 4 5 1016.0 1015.8 0.0
08/04:00am 16.3 17.9 15.0 92 0.8 CALM 0 0 0 0 1015.8 1015.6 0.0
08/03:30am 16.4 18.1 15.1 92 0.8 CALM 0 0 0 0 1015.8 1015.6 0.0
08/03:00am 15.9 15.9 14.3 90 0.9 S 7 9 4 5 1015.8 1015.6 0.0
08/02:30am 16.9 17.4 15.1 89 1.0 S 6 6 3 3 1015.6 1015.4 0.0
08/02:00am 18.1 19.0 16.1 88 1.2 S 6 9 3 5 1015.9 1015.7 0.0
08/01:30am 18.6 19.1 16.6 88 1.2 S 9 11 5 6 1016.0 1015.8 0.0
08/01:00am 18.7 19.1 16.3 86 1.4 SSW 9 13 5 7 1016.0 1015.8 0.0
08/12:30am 19.2 19.3 16.6 85 1.6 S 11 13 6 7 1015.9 1015.7 0.0
08/12:00am 19.2 18.8 16.2 83 1.8 S 13 19 7 10 1015.8 1015.6 0.0
 
Date/Time
EDT
Temp
°C
App
Temp
°C
Dew
Point
°C
Rel
Hum
%
Delta-T
°C
Wind Press
QNH
hPa
Press
MSL
hPa
Rain since
9am
mm
Dir  Spd
km/h
Gust
km/h
Spd
kts
Gust
kts
07/11:30pm 19.2 18.7 15.9 81 2.0 S 13 17 7 9 1015.6 1015.4 0.0
07/11:00pm 19.2 18.5 15.5 79 2.2 S 13 19 7 10 1015.3 1015.1 0.0
07/10:30pm 19.5 18.4 15.4 77 2.4 S 15 19 8 10 1014.8 1014.6 0.0
07/10:00pm 19.4 18.3 14.2 72 3.0 SSW 13 17 7 9 1014.1 1013.9 0.0
07/09:30pm 20.2 19.4 15.2 73 3.0 S 13 17 7 9 1013.7 1013.5 0.0
07/09:00pm 20.1 19.2 13.8 67 3.6 SSE 11 15 6 8 1013.0 1012.8 0.0
07/08:30pm 21.7 20.8 13.6 60 4.7 SE 11 17 6 9 1012.6 1012.3 0.0
07/08:00pm 22.2 20.5 12.5 54 5.5 SSE 13 17 7 9 1011.9 1011.6 0.0
07/07:30pm 22.9 20.4 12.2 51 6.1 ESE 17 26 9 14 1011.2 1010.9 0.0
07/07:00pm 23.7 21.2 12.4 49 6.5 E 17 24 9 13 1010.5 1010.2 0.0
07/06:30pm 24.6 21.3 11.5 44 7.4 E 20 26 11 14 1009.7 1009.4 0.0
07/06:00pm 25.7 21.7 10.3 38 8.6 E 22 30 12 16 1009.1 1008.8 0.0
07/05:30pm 27.0 23.7 9.4 33 9.7 E 17 20 9 11 1008.6 1008.3 0.0
07/05:00pm 27.1 23.1 9.0 32 10.0 E 20 28 11 15 1008.5 1008.2 0.0
07/04:30pm 28.0 23.7 7.8 28 10.9 E 20 26 11 14 1008.4 1008.1 0.0
07/04:00pm 30.0 26.2 1.5 16 14.0 N 11 15 6 8 1008.3 1008.0 0.0
07/03:30pm 30.2 26.1 2.5 17 13.9 N 13 17 7 9 1008.4 1008.1 0.0
07/03:00pm 30.1 25.8 3.2 18 13.6 NNW 15 24 8 13 1008.8 1008.5 0.0
07/02:30pm 30.0 25.8 3.9 19 13.4 NNE 15 26 8 14 1008.9 1008.6 0.0
07/02:00pm 30.1 27.1 6.1 22 12.8 NE 11 20 6 11 1009.3 1009.0 0.0
07/01:30pm 29.4 26.1 7.9 26 11.7 N 15 22 8 12 1009.7 1009.4 0.0

Other formats

Comma delimited format used in spreadsheet applications
http://www.bom.gov.au/fwo/IDN60801/IDN60801.95771.axf

JavaScript Object Notation format (JSON) in row-major order
http://www.bom.gov.au/fwo/IDN60801/IDN60801.95771.json

Data quality

Most of these data are generated automatically and are frequently updated. Quality checks on data are not normally performed. It is possible for incorrect values to appear. Refer to information at About Latest Weather Observations and please check the disclaimer before using these data.